Terminal Aerodrome Forecast
Issued by NWS

Home | Current Version | Previous Version | Text Only | Print | Product List | Glossary On
Versions: 1 2 3 4 5 6 7 8 9 10 11 12 13 14 15 16 17 18 19 20 21 22 23 24 25 26 27 28
000
FTUS45 KABQ 010500 RRA
TAFLVS
TAF
KLVS 010542Z 0106/0206 01006KT P6SM SCT020
     FM010900 35007KT P6SM VCFG SCT020
     FM011100 07006KT P6SM VCFG BKN015
     FM011900 19012KT P6SM FEW040=

USA.gov is the U.S. government's official web portal to all federal, state and local government web resources and services.